Time;durP1;ratioP1;P1;durP2;ratioP2;P2;SDS_P1;SDS_P2;PMS_P1;PMS_P2;Temp;Humidity;BMP_temperature;BMP_pressure;BME280_temperature;BME280_humidity;BME280_pressure;Samples;Min_cycle;Max_cycle;Signal;HPM_P1;HPM_P2
2023/10/21 00:00:54;;;;;;;1.70;1.23;;;;;;;19.76;69.44;99351.19;4921866;28;20416;-78
2023/10/21 00:03:22;;;;;;;2.03;1.38;;;;;;;19.68;69.32;99336.16;4933340;28;20101;-79
2023/10/21 00:05:50;;;;;;;2.95;1.30;;;;;;;19.71;69.40;99345.63;4912173;28;20047;-79
2023/10/21 00:08:19;;;;;;;2.85;1.33;;;;;;;19.56;69.36;99322.59;4926561;28;20077;-80
2023/10/21 00:10:46;;;;;;;3.55;1.20;;;;;;;19.58;68.99;99338.53;4922341;28;20846;-81
2023/10/21 00:13:16;;;;;;;4.78;1.50;;;;;;;19.46;68.65;99327.69;4919541;28;20054;-81
2023/10/21 00:15:42;;;;;;;8.15;1.67;;;;;;;19.25;69.39;99312.84;4914663;28;20050;-79
2023/10/21 00:18:12;;;;;;;5.82;1.63;;;;;;;19.48;69.89;99343.63;4926578;28;20370;-80
2023/10/21 00:20:53;;;;;;;9.73;1.50;;;;;;;19.54;69.28;99357.00;4931093;28;20054;-82
2023/10/21 00:23:21;;;;;;;3.97;1.48;;;;;;;19.52;69.73;99350.22;4945622;28;20070;-80
2023/10/21 00:25:49;;;;;;;7.45;1.80;;;;;;;19.60;69.46;99358.78;4902266;29;20633;-79
2023/10/21 00:28:17;;;;;;;2.85;1.33;;;;;;;19.70;68.62;99352.09;4927750;28;20058;-80
2023/10/21 00:30:45;;;;;;;4.93;1.08;;;;;;;19.66;69.02;99349.00;4937388;28;20050;-79
2023/10/21 00:33:14;;;;;;;4.72;1.35;;;;;;;19.75;68.13;99352.22;4930850;28;20070;-81
2023/10/21 00:35:50;;;;;;;3.40;1.25;;;;;;;19.59;69.06;99354.47;4932852;28;20944;-81
2023/10/21 00:38:18;;;;;;;12.30;1.95;;;;;;;19.48;68.76;99351.69;4932952;28;20129;-81
2023/10/21 00:40:52;;;;;;;3.17;1.30;;;;;;;19.42;68.66;99356.94;4933276;28;20054;-80
2023/10/21 00:43:42;;;;;;;2.33;1.30;;;;;;;19.25;68.77;99323.59;4937517;28;20253;-80
2023/10/21 00:46:14;;;;;;;5.93;1.35;;;;;;;19.53;69.46;99363.44;4929537;28;20137;-80
2023/10/21 00:48:44;;;;;;;;;;;;;;;19.21;69.25;99317.03;4939794;28;20396;-81
2023/10/21 00:51:15;;;;;;;7.32;1.77;;;;;;;19.49;68.96;99369.47;4932478;28;20016;-81
2023/10/21 00:53:42;;;;;;;8.43;1.55;;;;;;;19.15;71.60;99350.19;4918736;28;20079;-80
2023/10/21 00:56:12;;;;;;;7.03;1.80;;;;;;;19.05;71.45;99345.31;4918768;28;20074;-81
2023/10/21 00:58:40;;;;;;;7.07;3.08;;;;;;;18.98;73.60;99358.84;4924660;28;20395;-79
2023/10/21 01:01:08;;;;;;;7.47;2.13;;;;;;;18.88;72.83;99350.44;4920096;28;20074;-80
2023/10/21 01:03:40;;;;;;;5.30;1.88;;;;;;;18.96;72.65;99352.88;4937286;28;20050;-82
2023/10/21 01:06:07;;;;;;;10.43;1.90;;;;;;;19.04;71.79;99364.38;4929032;28;20050;-81
2023/10/21 01:08:44;;;;;;;7.18;1.50;;;;;;;19.04;72.10;99367.06;4936849;28;20110;-81
2023/10/21 01:11:11;;;;;;;7.53;2.08;;;;;;;18.93;71.24;99353.31;4923128;28;20085;-81
2023/10/21 01:13:39;;;;;;;4.93;1.73;;;;;;;18.83;72.19;99363.72;4939783;28;20429;-79
2023/10/21 01:16:06;;;;;;;5.72;1.38;;;;;;;18.90;71.91;99377.13;4914681;28;20077;-81
2023/10/21 01:18:34;;;;;;;7.88;1.75;;;;;;;18.84;72.88;99364.56;4929832;28;20046;-79
2023/10/21 01:21:02;;;;;;;4.88;1.50;;;;;;;18.87;72.30;99364.94;4912501;28;20117;-81
2023/10/21 01:23:30;;;;;;;7.95;1.63;;;;;;;18.63;72.14;99320.03;4921542;28;20053;-80
2023/10/21 01:25:57;;;;;;;1.65;0.90;;;;;;;19.06;71.75;99370.38;4907703;28;20392;-80
2023/10/21 01:28:25;;;;;;;2.30;1.00;;;;;;;19.04;71.05;99348.25;4930690;28;20062;-80
2023/10/21 01:30:52;;;;;;;9.68;1.92;;;;;;;18.98;70.53;99363.38;4927658;28;20282;-79
2023/10/21 01:33:19;;;;;;;8.98;1.70;;;;;;;18.92;70.79;99377.72;4918785;28;20051;-79
2023/10/21 01:35:46;;;;;;;6.55;1.65;;;;;;;18.78;72.66;99382.38;4927211;28;20133;-80
2023/10/21 01:38:20;;;;;;;12.10;1.90;;;;;;;18.68;72.40;99382.03;4922228;28;20051;-80
2023/10/21 01:40:49;;;;;;;11.32;1.92;;;;;;;18.60;71.83;99371.56;4935190;28;20059;-78
2023/10/21 01:43:16;;;;;;;9.57;2.28;;;;;;;18.53;73.41;99380.47;4943940;28;20047;-78
2023/10/21 01:45:46;;;;;;;9.95;1.70;;;;;;;18.42;75.34;99377.66;4937014;28;20105;-79
2023/10/21 01:48:14;;;;;;;9.68;1.80;;;;;;;18.26;75.90;99370.97;4937276;28;20057;-78
2023/10/21 01:50:41;;;;;;;6.90;1.77;;;;;;;18.40;76.96;99407.47;4934719;28;20055;-82
2023/10/21 01:53:08;;;;;;;6.43;1.95;;;;;;;18.40;76.56;99409.28;4930123;28;20504;-80
2023/10/21 01:55:42;;;;;;;1.80;1.05;;;;;;;18.51;75.34;99401.38;4897190;29;20497;-81
2023/10/21 01:58:11;;;;;;;7.22;1.70;;;;;;;18.62;74.46;99399.88;4929398;28;20417;-82
2023/10/21 02:00:39;;;;;;;2.33;1.48;;;;;;;18.71;73.48;99395.84;4920913;28;20055;-77
2023/10/21 02:03:06;;;;;;;4.90;1.98;;;;;;;18.78;71.98;99396.66;4934005;28;20059;-82
2023/10/21 02:05:36;;;;;;;3.70;1.35;;;;;;;18.78;72.40;99398.50;4950651;28;20893;-81
2023/10/21 02:08:06;;;;;;;9.82;2.05;;;;;;;18.41;72.72;99355.34;4951493;28;20161;-81
2023/10/21 02:10:38;;;;;;;8.02;2.15;;;;;;;18.44;73.17;99376.41;4951344;28;20042;-80
2023/10/21 02:13:05;;;;;;;9.95;1.70;;;;;;;18.45;74.78;99388.81;4939644;28;20055;-80
2023/10/21 02:15:39;;;;;;;7.03;1.83;;;;;;;18.34;74.18;99392.19;4935084;28;20568;-78
2023/10/21 02:18:09;;;;;;;5.70;1.85;;;;;;;18.23;73.95;99390.19;4921683;28;20482;-80
2023/10/21 02:20:37;;;;;;;8.30;1.70;;;;;;;18.23;73.43;99411.66;4931639;28;20580;-79
2023/10/21 02:23:04;;;;;;;7.05;1.50;;;;;;;18.38;73.74;99424.84;4928234;28;20416;-79
2023/10/21 02:25:31;;;;;;;6.55;1.85;;;;;;;18.40;74.12;99431.63;4911893;29;20126;-79
2023/10/21 02:28:00;;;;;;;10.65;2.28;;;;;;;18.46;73.88;99424.56;4922048;28;20540;-78
2023/10/21 02:30:29;;;;;;;10.85;2.25;;;;;;;18.58;73.64;99444.34;4931672;28;20061;-81
2023/10/21 02:32:55;;;;;;;10.57;2.17;;;;;;;18.58;73.56;99447.84;4930375;28;20051;-80
2023/10/21 02:35:23;;;;;;;6.38;1.48;;;;;;;18.42;73.09;99442.97;4935483;28;20170;-77
2023/10/21 02:37:50;;;;;;;6.90;1.83;;;;;;;18.14;73.82;99403.88;4920547;28;20385;-78
2023/10/21 02:40:17;;;;;;;6.18;1.83;;;;;;;18.41;74.76;99452.09;4925729;28;20043;-80
2023/10/21 02:42:46;;;;;;;12.10;1.83;;;;;;;18.09;74.02;99400.19;4916306;28;20054;-81
2023/10/21 02:45:13;;;;;;;9.27;1.80;;;;;;;18.32;74.24;99418.44;4893566;28;20406;-81
2023/10/21 02:47:40;;;;;;;8.68;2.00;;;;;;;18.06;72.88;99374.59;4904766;28;20531;-80
2023/10/21 02:50:07;;;;;;;8.75;1.80;;;;;;;18.43;73.79;99422.31;4926585;28;20057;-79
2023/10/21 02:52:37;;;;;;;9.05;2.20;;;;;;;18.41;73.92;99425.22;4927672;28;20386;-79
2023/10/21 02:55:06;;;;;;;10.48;1.88;;;;;;;18.68;73.28;99468.03;4930488;28;20062;-79
2023/10/21 02:57:36;;;;;;;9.15;1.60;;;;;;;18.63;73.10;99447.19;4915854;28;20408;-79
2023/10/21 03:00:10;;;;;;;6.00;1.65;;;;;;;18.54;73.34;99443.97;4923846;28;20409;-80
2023/10/21 03:02:38;;;;;;;7.88;1.67;;;;;;;18.44;73.79;99435.53;4920664;28;20067;-81
2023/10/21 03:05:05;;;;;;;7.05;1.85;;;;;;;18.35;74.36;99448.41;4930534;28;20537;-81
2023/10/21 03:07:33;;;;;;;4.38;1.73;;;;;;;18.23;75.40;99449.28;4929191;28;20043;-80
2023/10/21 03:10:00;;;;;;;6.90;1.63;;;;;;;18.09;76.46;99449.34;4920822;28;20380;-81
2023/10/21 03:12:41;;;;;;;7.43;1.83;;;;;;;18.18;74.95;99462.53;4902676;28;20432;-81
2023/10/21 03:15:10;;;;;;;7.32;1.20;;;;;;;17.84;75.39;99402.78;4938282;28;20378;-80
2023/10/21 03:17:37;;;;;;;5.03;1.35;;;;;;;18.48;74.78;99492.38;4930695;28;20133;-80
2023/10/21 03:20:06;;;;;;;7.53;1.52;;;;;;;18.40;73.11;99466.56;4929381;28;20061;-79
2023/10/21 03:22:34;;;;;;;5.45;1.55;;;;;;;18.63;73.34;99487.50;4929820;28;20058;-80
2023/10/21 03:25:02;;;;;;;8.18;2.00;;;;;;;18.67;72.26;99455.66;4902621;28;20424;-81
2023/10/21 03:27:30;;;;;;;6.63;1.30;;;;;;;18.38;70.72;99411.41;4916765;28;20058;-82
2023/10/21 03:29:58;;;;;;;4.20;1.48;;;;;;;18.83;72.14;99484.72;4924835;28;20444;-81
2023/10/21 03:32:26;;;;;;;11.00;2.03;;;;;;;18.85;71.72;99489.88;4928561;28;20063;-80
2023/10/21 03:34:53;;;;;;;6.07;1.65;;;;;;;18.90;71.44;99488.19;4929233;28;20054;-80
2023/10/21 03:37:20;;;;;;;7.22;1.67;;;;;;;18.70;71.10;99455.22;4938339;28;20054;-81
2023/10/21 03:39:47;;;;;;;4.72;1.67;;;;;;;18.74;71.34;99468.00;4925177;28;20336;-80
2023/10/21 03:42:21;;;;;;;11.20;2.05;;;;;;;18.64;71.93;99488.31;4918051;28;20051;-81
2023/10/21 03:45:00;;;;;;;7.68;1.95;;;;;;;18.58;72.34;99514.22;4906198;28;20258;-80
2023/10/21 03:47:27;;;;;;;5.38;1.70;;;;;;;18.52;72.77;99513.22;4912290;28;20058;-81
2023/10/21 03:49:54;;;;;;;7.82;1.80;;;;;;;18.52;72.85;99518.59;4915691;28;20253;-80
2023/10/21 03:52:20;;;;;;;7.18;2.15;;;;;;;18.32;71.68;99474.84;4913529;28;20245;-81
2023/10/21 03:54:56;;;;;;;5.10;1.92;;;;;;;18.65;71.42;99511.50;4889099;28;20043;-81
2023/10/21 03:57:27;;;;;;;5.00;1.35;;;;;;;18.65;71.84;99506.13;4901039;28;20111;-79
2023/10/21 03:59:55;;;;;;;5.15;1.48;;;;;;;18.76;71.11;99510.81;4915596;28;20581;-77
2023/10/21 04:02:23;;;;;;;8.38;2.00;;;;;;;18.74;69.31;99491.38;4931097;28;20070;-79
2023/10/21 04:04:52;;;;;;;8.73;1.63;;;;;;;18.91;69.91;99494.38;4916703;28;20055;-81
2023/10/21 04:07:25;;;;;;;2.47;1.10;;;;;;;19.00;69.07;99512.75;4910969;28;20054;-79
2023/10/21 04:09:55;;;;;;;5.72;1.33;;;;;;;19.16;68.92;99508.69;4913111;28;20101;-79
2023/10/21 04:12:22;;;;;;;2.45;1.45;;;;;;;18.95;69.35;99466.84;4928632;28;20058;-80
2023/10/21 04:14:49;;;;;;;3.63;1.60;;;;;;;19.29;68.57;99506.94;4926875;28;20082;-80
2023/10/21 04:17:16;;;;;;;4.95;1.35;;;;;;;19.28;67.33;99511.50;4922720;28;20551;-81
2023/10/21 04:19:43;;;;;;;6.72;1.98;;;;;;;19.33;68.00;99522.41;4929618;28;20436;-80
2023/10/21 04:22:12;;;;;;;7.13;1.50;;;;;;;19.19;67.75;99512.81;4933212;28;20047;-81
2023/10/21 04:24:39;;;;;;;5.18;1.38;;;;;;;18.99;67.67;99504.88;4916987;28;20043;-81
2023/10/21 04:27:06;;;;;;;4.00;1.50;;;;;;;19.14;68.40;99524.22;4921836;28;20086;-80
2023/10/21 04:29:33;;;;;;;4.53;1.67;;;;;;;18.95;68.42;99509.03;4899745;28;20063;-79
2023/10/21 04:31:59;;;;;;;6.63;1.52;;;;;;;18.97;68.77;99515.84;4919127;28;20053;-79
2023/10/21 04:34:27;;;;;;;7.22;1.98;;;;;;;18.72;68.48;99474.66;4927603;28;20134;-81
2023/10/21 04:36:59;;;;;;;2.28;1.17;;;;;;;19.15;68.25;99541.19;4903916;28;20147;-82
2023/10/21 04:39:33;;;;;;;9.57;1.92;;;;;;;19.25;68.10;99533.47;4913803;28;20061;-81
2023/10/21 04:41:59;;;;;;;6.23;1.63;;;;;;;19.36;67.27;99548.06;4922066;28;20047;-80
2023/10/21 04:44:27;;;;;;;1.85;0.98;;;;;;;19.37;68.39;99555.06;4926937;28;20049;-79
2023/10/21 04:46:53;;;;;;;5.93;1.40;;;;;;;19.19;66.76;99528.94;4923147;28;20051;-80
2023/10/21 04:49:20;;;;;;;5.78;1.30;;;;;;;19.42;67.61;99529.19;4927146;28;20505;-82
2023/10/21 04:51:47;;;;;;;6.72;1.45;;;;;;;19.52;67.23;99538.63;4921133;28;20091;-80
2023/10/21 04:54:14;;;;;;;2.90;1.02;;;;;;;19.63;67.18;99556.72;4938828;28;20542;-80
2023/10/21 04:56:41;;;;;;;5.10;1.27;;;;;;;19.40;67.25;99525.88;4915071;28;20484;-80
2023/10/21 04:59:09;;;;;;;6.43;1.48;;;;;;;19.49;66.34;99544.44;4931737;28;20046;-81
2023/10/21 05:01:36;;;;;;;5.22;1.38;;;;;;;18.85;67.56;99447.69;4931933;28;20046;-80
2023/10/21 05:04:05;;;;;;;5.50;1.30;;;;;;;19.52;68.12;99560.16;4920918;28;20043;-82
2023/10/21 05:06:32;;;;;;;4.25;1.30;;;;;;;19.19;67.67;99491.28;4938510;28;20051;-81
2023/10/21 05:08:59;;;;;;;3.17;1.55;;;;;;;19.67;67.32;99563.31;4954792;28;20047;-80
2023/10/21 05:11:26;;;;;;;5.40;1.20;;;;;;;19.61;66.76;99565.03;4944725;28;20481;-80
2023/10/21 05:13:52;;;;;;;3.38;1.50;;;;;;;19.47;67.53;99539.28;4946946;28;20086;-80
2023/10/21 05:16:25;;;;;;;5.82;1.80;;;;;;;19.45;67.37;99546.75;4944137;28;20047;-81
2023/10/21 05:18:57;;;;;;;2.80;1.42;;;;;;;19.43;67.63;99571.19;4935749;28;20266;-82
2023/10/21 05:21:24;;;;;;;7.65;1.58;;;;;;;19.29;68.04;99545.41;4936809;28;20057;-79
2023/10/21 05:23:53;;;;;;;9.15;1.80;;;;;;;19.40;67.44;99578.88;4944261;28;20047;-79
2023/10/21 05:26:27;;;;;;;7.03;1.50;;;;;;;18.93;67.99;99525.41;4942818;28;20051;-80
2023/10/21 05:29:00;;;;;;;5.60;1.63;;;;;;;18.96;68.29;99554.56;4933439;28;20527;-81
2023/10/21 05:31:26;;;;;;;8.27;1.90;;;;;;;18.68;68.62;99527.19;4934703;28;20051;-80
2023/10/21 05:33:57;;;;;;;11.73;2.22;;;;;;;18.97;68.03;99598.41;4930365;28;20449;-80
2023/10/21 05:36:26;;;;;;;10.10;2.57;;;;;;;18.94;68.67;99612.28;4925406;28;20572;-78
2023/10/21 05:38:53;;;;;;;5.40;1.67;;;;;;;18.88;68.70;99622.03;4900258;28;20480;-80
2023/10/21 05:41:21;;;;;;;6.85;1.92;;;;;;;18.79;70.67;99620.66;4920967;28;20501;-81
2023/10/21 05:43:48;;;;;;;12.73;2.38;;;;;;;18.59;70.02;99601.84;4933399;28;20042;-82
2023/10/21 05:46:15;;;;;;;9.63;2.58;;;;;;;18.68;70.65;99618.59;4945072;28;20607;-80
2023/10/21 05:48:45;;;;;;;3.47;1.67;;;;;;;18.63;70.84;99623.78;4932049;28;20145;-79
2023/10/21 05:51:13;;;;;;;9.85;1.88;;;;;;;18.50;71.02;99609.34;4931902;28;20319;-79
2023/10/21 05:53:40;;;;;;;10.85;2.53;;;;;;;18.65;70.93;99629.78;4936624;28;20504;-80
2023/10/21 05:56:07;;;;;;;11.50;2.90;;;;;;;18.61;71.02;99640.09;4936864;28;20535;-79
2023/10/21 05:58:36;;;;;;;8.23;2.83;;;;;;;18.44;70.48;99623.63;4934060;28;20407;-78
2023/10/21 06:01:08;;;;;;;5.50;2.28;;;;;;;18.54;70.95;99650.91;4934282;28;20054;-79
2023/10/21 06:03:36;;;;;;;7.78;2.72;;;;;;;18.51;70.69;99647.78;4925329;28;20082;-78
2023/10/21 06:06:08;;;;;;;8.18;2.15;;;;;;;18.54;71.07;99656.28;4918729;28;20055;-80
2023/10/21 06:08:36;;;;;;;8.43;2.42;;;;;;;18.50;71.02;99657.72;4947865;28;20292;-79
2023/10/21 06:11:03;;;;;;;10.73;2.63;;;;;;;18.43;71.43;99645.34;4927826;28;20131;-81
2023/10/21 06:13:29;;;;;;;4.63;1.38;;;;;;;18.69;70.85;99672.16;4929281;28;20051;-81
2023/10/21 06:15:59;;;;;;;8.00;2.20;;;;;;;18.66;70.15;99666.34;4932122;28;20047;-78
2023/10/21 06:18:28;;;;;;;6.15;2.13;;;;;;;18.70;70.12;99672.97;4927504;28;20492;-78
2023/10/21 06:20:58;;;;;;;11.13;2.40;;;;;;;18.61;70.40;99671.53;4913295;28;20050;-79
2023/10/21 06:23:25;;;;;;;6.85;2.20;;;;;;;18.63;70.62;99685.59;4923760;28;20279;-78
2023/10/21 06:25:52;;;;;;;11.73;2.58;;;;;;;18.60;70.37;99683.34;4929013;28;20057;-79
2023/10/21 06:28:22;;;;;;;9.32;2.85;;;;;;;17.91;70.93;99583.44;4920289;28;20512;-78
2023/10/21 06:30:57;;;;;;;8.02;2.65;;;;;;;18.33;71.48;99643.09;4932583;28;20105;-79
2023/10/21 06:33:24;;;;;;;10.80;2.50;;;;;;;18.54;71.87;99688.53;4926859;28;20055;-79
2023/10/21 06:35:52;;;;;;;13.60;3.65;;;;;;;18.56;71.65;99707.94;4898985;28;20889;-80
2023/10/21 06:38:19;;;;;;;13.82;3.47;;;;;;;18.57;72.20;99708.78;4918026;28;20487;-79
2023/10/21 06:40:46;;;;;;;12.88;4.00;;;;;;;18.56;73.21;99713.31;4913860;28;20355;-79
2023/10/21 06:43:36;;;;;;;10.15;5.05;;;;;;;18.52;71.78;99722.84;4902487;28;20113;-79
2023/10/21 06:46:07;;;;;;;18.85;6.88;;;;;;;18.29;73.24;99690.22;4902169;28;20109;-79
2023/10/21 06:48:38;;;;;;;22.60;13.35;;;;;;;18.48;72.72;99729.66;4900916;28;20051;-80
2023/10/21 06:51:07;;;;;;;14.00;7.25;;;;;;;18.49;73.14;99728.63;4915689;28;20089;-78
2023/10/21 06:53:34;;;;;;;8.82;4.18;;;;;;;18.56;73.46;99737.50;4909304;28;20112;-79
2023/10/21 06:56:01;;;;;;;8.68;3.42;;;;;;;18.62;72.33;99740.38;4924229;28;20055;-80
2023/10/21 06:58:28;;;;;;;4.97;2.60;;;;;;;18.25;71.66;99688.97;4904444;28;20635;-80
2023/10/21 07:00:56;;;;;;;5.35;2.58;;;;;;;18.76;71.68;99763.53;4915523;28;20046;-80
2023/10/21 07:03:23;;;;;;;6.45;2.50;;;;;;;18.67;72.02;99737.91;4905768;28;20057;-81
2023/10/21 07:05:50;;;;;;;7.32;2.50;;;;;;;18.93;71.63;99759.38;4895007;28;20058;-82
2023/10/21 07:08:18;;;;;;;8.30;2.75;;;;;;;18.91;71.27;99749.84;4923830;28;20081;-81
2023/10/21 07:10:45;;;;;;;9.45;2.83;;;;;;;18.97;71.06;99741.75;4918594;28;20813;-80
2023/10/21 07:13:14;;;;;;;8.75;3.15;;;;;;;19.17;70.42;99762.38;4899976;28;20785;-80
2023/10/21 07:15:47;;;;;;;9.57;3.92;;;;;;;18.85;69.57;99711.19;4895541;28;20341;-79
2023/10/21 07:18:20;;;;;;;9.88;3.22;;;;;;;19.14;69.86;99773.59;4928673;28;20055;-79
2023/10/21 07:20:55;;;;;;;;;;;;;;;18.67;71.08;99719.09;4904609;28;20079;-79
2023/10/21 07:23:23;;;;;;;9.57;3.40;;;;;;;18.58;71.23;99738.13;4927854;28;19988;-79
2023/10/21 07:25:52;;;;;;;7.45;2.80;;;;;;;18.63;72.84;99767.06;4925707;28;20420;-79
2023/10/21 07:28:19;;;;;;;10.07;3.40;;;;;;;18.75;72.54;99783.38;4918897;28;20058;-78
2023/10/21 07:30:45;;;;;;;11.88;3.50;;;;;;;18.69;72.90;99781.50;4893034;28;20542;-78
2023/10/21 07:33:16;;;;;;;5.90;2.67;;;;;;;18.48;72.47;99736.91;4885739;28;20063;-80
2023/10/21 07:35:50;;;;;;;9.68;4.63;;;;;;;18.79;71.60;99792.72;4904530;28;20104;-79
2023/10/21 07:38:19;;;;;;;8.82;3.05;;;;;;;18.83;72.04;99788.56;4900563;28;20533;-78
2023/10/21 07:40:46;;;;;;;7.28;2.42;;;;;;;18.87;71.95;99788.97;4905318;28;20465;-82
2023/10/21 07:43:18;;;;;;;7.63;3.05;;;;;;;18.89;71.45;99778.84;4898998;28;20050;-80
2023/10/21 07:45:46;;;;;;;3.85;2.38;;;;;;;18.90;71.42;99764.34;4909741;28;20047;-80
2023/10/21 07:48:13;;;;;;;6.00;2.72;;;;;;;18.99;70.93;99777.34;4915330;28;20050;-80
2023/10/21 07:50:41;;;;;;;6.50;2.70;;;;;;;19.27;70.61;99800.44;4896616;28;20544;-82
2023/10/21 07:53:08;;;;;;;6.85;2.83;;;;;;;19.37;70.36;99803.50;4922600;28;20417;-78
2023/10/21 07:55:35;;;;;;;13.52;3.58;;;;;;;19.40;70.37;99811.16;4902780;28;20143;-78
2023/10/21 07:58:02;;;;;;;8.02;3.05;;;;;;;19.27;70.29;99789.66;4913940;28;20086;-81
2023/10/21 08:00:30;;;;;;;8.80;3.15;;;;;;;19.14;69.89;99768.19;4899753;28;20386;-79
2023/10/21 08:02:58;;;;;;;8.32;2.58;;;;;;;19.31;70.19;99790.91;4890642;28;20074;-79
2023/10/21 08:05:27;;;;;;;3.78;2.22;;;;;;;19.49;69.65;99809.06;4886952;28;20046;-80
2023/10/21 08:07:59;;;;;;;5.85;2.88;;;;;;;19.21;69.60;99751.00;4895223;28;20235;-79
2023/10/21 08:10:26;;;;;;;6.20;2.53;;;;;;;19.66;69.54;99812.09;4908418;28;20482;-81
2023/10/21 08:12:53;;;;;;;6.65;2.42;;;;;;;19.62;69.02;99808.16;4917220;28;20150;-77
2023/10/21 08:15:24;;;;;;;3.03;2.08;;;;;;;19.78;68.80;99817.63;4906799;28;20063;-78
2023/10/21 08:17:51;;;;;;;3.83;2.65;;;;;;;19.75;69.10;99818.88;4934256;28;20795;-78
2023/10/21 08:20:20;;;;;;;5.65;2.72;;;;;;;19.83;68.98;99818.66;4928924;28;20306;-78
2023/10/21 08:22:47;;;;;;;6.57;2.65;;;;;;;19.83;68.77;99812.41;4916778;28;20250;-78
2023/10/21 08:25:15;;;;;;;9.30;2.90;;;;;;;19.83;68.82;99807.88;4941080;28;20090;-79
2023/10/21 08:27:47;;;;;;;8.40;3.47;;;;;;;19.69;69.03;99787.44;4921002;28;20274;-78
2023/10/21 08:30:17;;;;;;;4.88;2.47;;;;;;;19.90;68.79;99809.69;4931889;28;20056;-81
2023/10/21 08:32:44;;;;;;;7.75;2.95;;;;;;;19.97;68.66;99799.69;4929703;28;20047;-77
2023/10/21 08:35:13;;;;;;;5.20;2.50;;;;;;;19.73;68.38;99758.19;4922472;28;20104;-80
2023/10/21 08:37:41;;;;;;;5.72;2.70;;;;;;;19.97;68.09;99786.22;4949058;28;20058;-79
2023/10/21 08:40:12;;;;;;;17.75;3.00;;;;;;;19.85;68.56;99765.41;4911304;28;20047;-80
2023/10/21 08:42:39;;;;;;;3.22;2.08;;;;;;;20.12;68.00;99799.38;4917994;28;20390;-78
2023/10/21 08:45:10;;;;;;;11.13;2.70;;;;;;;20.14;68.26;99794.59;4925953;28;20075;-79
2023/10/21 08:47:40;;;;;;;4.63;2.47;;;;;;;19.72;68.16;99730.47;4917314;28;20043;-80
2023/10/21 08:50:09;;;;;;;4.30;2.53;;;;;;;20.26;67.46;99799.06;4904116;28;20058;-79
2023/10/21 08:52:42;;;;;;;8.80;3.10;;;;;;;20.30;67.55;99804.03;4902519;28;20070;-79
2023/10/21 08:55:10;;;;;;;7.65;2.45;;;;;;;20.39;67.29;99805.38;4914971;28;20374;-80
2023/10/21 08:57:37;;;;;;;6.57;2.30;;;;;;;20.46;66.76;99798.91;4915908;28;20055;-79
2023/10/21 09:00:05;;;;;;;11.00;3.17;;;;;;;19.82;67.36;99695.78;4885147;29;20719;-78
2023/10/21 09:02:32;;;;;;;5.35;2.53;;;;;;;20.59;66.76;99792.59;4902108;28;20059;-79
2023/10/21 09:05:09;;;;;;;7.55;2.47;;;;;;;20.69;66.47;99802.88;4887343;29;20075;-79
2023/10/21 09:07:47;;;;;;;5.32;2.15;;;;;;;20.68;66.08;99791.28;4918733;28;20129;-79
2023/10/21 09:10:15;;;;;;;6.30;2.53;;;;;;;20.68;65.83;99775.09;4921694;28;20398;-79
2023/10/21 09:12:42;;;;;;;8.23;2.90;;;;;;;20.74;65.51;99757.19;4925380;28;20058;-78
2023/10/21 09:15:12;;;;;;;12.40;3.05;;;;;;;20.95;65.56;99782.91;4926920;28;20046;-79
2023/10/21 09:17:45;;;;;;;11.88;2.78;;;;;;;21.03;65.92;99782.59;4927697;28;20374;-80
2023/10/21 09:20:15;;;;;;;5.90;2.78;;;;;;;21.19;66.11;99788.44;4927521;28;20058;-78
2023/10/21 09:22:44;;;;;;;7.65;2.55;;;;;;;21.28;65.02;99789.78;4919894;28;20051;-80
2023/10/21 09:25:19;;;;;;;7.00;2.80;;;;;;;21.45;64.68;99800.81;4915264;28;20545;-78
2023/10/21 09:27:49;;;;;;;11.93;3.30;;;;;;;21.06;65.35;99735.47;4918977;28;20047;-79
2023/10/21 09:30:18;;;;;;;7.05;2.67;;;;;;;21.55;64.66;99801.94;4922610;28;20438;-78
2023/10/21 09:32:46;;;;;;;8.55;3.03;;;;;;;21.45;64.25;99774.66;4928069;28;20417;-78
2023/10/21 09:35:18;;;;;;;4.50;2.60;;;;;;;21.70;64.04;99800.69;4933849;28;20046;-77
2023/10/21 09:37:46;;;;;;;12.15;2.95;;;;;;;21.80;63.56;99801.00;4938305;28;20481;-79
2023/10/21 09:40:17;;;;;;;8.27;2.78;;;;;;;22.05;60.93;99791.91;4919681;28;20128;-80
2023/10/21 09:42:44;;;;;;;3.80;2.17;;;;;;;22.19;60.56;99796.84;4916941;28;20138;-78
2023/10/21 09:45:12;;;;;;;7.25;2.92;;;;;;;22.07;60.86;99792.50;4918721;28;20442;-78
2023/10/21 09:47:41;;;;;;;6.45;2.50;;;;;;;21.87;60.94;99752.25;4919406;28;20322;-79
2023/10/21 09:50:16;;;;;;;9.48;2.53;;;;;;;22.02;60.88;99820.22;4920368;28;20444;-79
2023/10/21 09:53:00;;;;;;;6.35;2.40;;;;;;;21.87;60.86;99804.41;4923141;28;20113;-79
2023/10/21 09:55:31;;;;;;;4.63;2.42;;;;;;;21.82;61.40;99809.69;4907882;28;20077;-80
2023/10/21 09:58:00;;;;;;;10.52;2.92;;;;;;;21.66;61.37;99780.63;4918063;28;20055;-80
2023/10/21 10:00:30;;;;;;;5.07;2.50;;;;;;;21.90;60.35;99801.25;4899041;29;20051;-79
2023/10/21 10:02:58;;;;;;;4.47;2.55;;;;;;;21.74;60.94;99800.00;4909881;29;20066;-80
2023/10/21 10:05:30;;;;;;;6.30;2.65;;;;;;;21.82;61.41;99817.81;4897931;28;20223;-79
2023/10/21 10:08:04;;;;;;;8.27;2.50;;;;;;;21.70;61.05;99803.41;4896701;28;20468;-80
2023/10/21 10:10:38;;;;;;;4.80;2.60;;;;;;;21.33;62.01;99760.22;4897092;28;20051;-79
2023/10/21 10:13:14;;;;;;;6.03;2.42;;;;;;;21.69;61.60;99807.16;4926161;28;20047;-79
2023/10/21 10:15:42;;;;;;;15.52;8.15;;;;;;;21.77;62.29;99832.00;4926674;28;20357;-78
2023/10/21 10:18:18;;;;;;;6.25;2.65;;;;;;;21.66;61.89;99818.44;4916431;28;20141;-80
2023/10/21 10:20:49;;;;;;;7.72;2.60;;;;;;;21.63;61.75;99810.78;4910396;28;20330;-79
2023/10/21 10:23:24;;;;;;;4.35;2.47;;;;;;;21.62;61.87;99814.53;4922991;28;20470;-79
2023/10/21 10:25:51;;;;;;;6.13;2.40;;;;;;;21.69;61.80;99840.38;4935231;28;20062;-78
2023/10/21 10:28:27;;;;;;;8.73;3.30;;;;;;;21.38;61.86;99800.88;4911938;28;20059;-79
2023/10/21 10:31:02;;;;;;;7.88;3.13;;;;;;;21.51;63.37;99843.94;4903447;28;20485;-79
2023/10/21 10:33:33;;;;;;;7.32;3.38;;;;;;;21.43;63.41;99840.72;4917101;28;20117;-78
2023/10/21 10:36:06;;;;;;;10.93;3.17;;;;;;;21.20;62.63;99788.22;4931696;28;20441;-78
2023/10/21 10:38:54;;;;;;;8.77;2.72;;;;;;;21.37;64.01;99830.81;4917820;28;20059;-78
2023/10/21 10:41:28;;;;;;;8.20;2.78;;;;;;;21.40;62.92;99824.97;4917945;28;20054;-80
2023/10/21 10:43:57;;;;;;;8.35;2.53;;;;;;;21.46;63.60;99818.69;4902414;29;20058;-78
2023/10/21 10:46:25;;;;;;;9.63;3.25;;;;;;;21.49;63.90;99815.53;4878688;28;20058;-80
2023/10/21 10:49:05;;;;;;;12.88;3.03;;;;;;;21.51;63.17;99802.63;4903157;28;20226;-80
2023/10/21 10:51:47;;;;;;;7.55;3.00;;;;;;;21.28;63.12;99758.22;4910481;28;20046;-80
2023/10/21 10:54:19;;;;;;;13.55;3.20;;;;;;;21.05;63.13;99710.34;4931721;28;20498;-78
2023/10/21 10:56:58;;;;;;;8.63;3.28;;;;;;;21.43;62.88;99754.31;4907666;28;20109;-79
2023/10/21 10:59:33;;;;;;;10.77;3.45;;;;;;;21.46;63.30;99749.31;4899543;28;20420;-78
2023/10/21 11:02:01;;;;;;;11.40;4.05;;;;;;;21.55;63.33;99768.69;4900779;28;20093;-78
2023/10/21 11:04:34;;;;;;;5.38;2.50;;;;;;;21.65;62.38;99760.03;4908698;28;20539;-77
2023/10/21 11:07:09;;;;;;;3.88;2.20;;;;;;;21.58;61.73;99729.59;4898633;28;20252;-80
2023/10/21 11:09:36;;;;;;;8.48;2.60;;;;;;;21.71;61.18;99751.03;4912000;28;20442;-77
2023/10/21 11:12:09;;;;;;;7.15;2.95;;;;;;;21.84;61.21;99745.41;4909015;28;20076;-80
2023/10/21 11:14:38;;;;;;;9.98;2.60;;;;;;;21.78;61.35;99740.97;4914602;28;20326;-81
2023/10/21 11:17:13;;;;;;;8.38;2.47;;;;;;;21.75;60.89;99727.91;4899555;28;20277;-78
2023/10/21 11:19:52;;;;;;;6.40;2.15;;;;;;;21.72;60.72;99714.84;4898411;28;20165;-80
2023/10/21 11:22:44;;;;;;;4.88;2.33;;;;;;;21.65;60.76;99695.22;4913476;28;20428;-81
2023/10/21 11:25:14;;;;;;;8.50;2.78;;;;;;;21.72;60.71;99714.84;4895432;28;20553;-79
2023/10/21 11:27:46;;;;;;;10.80;3.33;;;;;;;21.64;60.90;99726.81;4895862;28;20447;-79
2023/10/21 11:30:23;;;;;;;6.88;2.67;;;;;;;21.67;61.24;99728.22;4919128;28;20790;-79
2023/10/21 11:33:11;;;;;;;6.97;2.67;;;;;;;21.31;60.38;99682.19;4901634;28;20125;-81
2023/10/21 11:35:51;;;;;;;6.75;2.88;;;;;;;21.67;60.53;99733.63;4905156;28;20047;-82
2023/10/21 11:38:23;;;;;;;8.48;2.72;;;;;;;21.67;60.97;99731.75;4914206;28;20342;-78
2023/10/21 11:41:07;;;;;;;9.32;3.08;;;;;;;21.56;61.69;99735.25;4903321;28;20149;-80
2023/10/21 11:43:47;;;;;;;4.35;2.67;;;;;;;21.47;61.67;99718.53;4896129;28;20339;-79